Time;durP1;ratioP1;P1;durP2;ratioP2;P2;SDS_P1;SDS_P2;PMS_P1;PMS_P2;Temp;Humidity;BMP_temperature;BMP_pressure;BME280_temperature;BME280_humidity;BME280_pressure;Samples;Min_cycle;Max_cycle;Signal;HPM_P1;HPM_P2
2024/01/30 00:00:38;;;;;;;;;;;;;;;1.73;62.25;97045.69;5034025;28;1910;-58
2024/01/30 00:03:12;;;;;;;;;;;;;;;1.73;62.84;97054.44;5033991;28;942;-58
2024/01/30 00:05:44;;;;;;;;;;;;;;;1.79;62.49;97047.22;5033622;28;1104;-58
2024/01/30 00:08:18;;;;;;;;;;;;;;;1.75;62.41;97046.47;5034054;28;998;-58
2024/01/30 00:10:52;;;;;;;;;;;;;;;1.51;63.05;97050.91;5033873;28;945;-59
2024/01/30 00:13:27;;;;;;;;;;;;;;;1.82;62.67;97058.50;5033494;28;1204;-59
2024/01/30 00:16:01;;;;;;;;;;;;;;;1.78;62.78;97056.03;5033548;28;973;-59
2024/01/30 00:18:35;;;;;;;;;;;;;;;1.72;63.08;97063.25;5033431;28;988;-58
2024/01/30 00:21:10;;;;;;;;;;;;;;;1.63;63.44;97055.72;5033650;28;1914;-58
2024/01/30 00:23:44;;;;;;;;;;;;;;;1.69;63.22;97065.16;5033619;28;921;-58
2024/01/30 00:26:18;;;;;;;;;;;;;;;1.52;63.51;97057.94;5033197;28;1005;-59
2024/01/30 00:28:53;;;;;;;;;;;;;;;1.50;63.31;97057.09;5033438;28;889;-58
2024/01/30 00:31:27;;;;;;;;;;;;;;;1.58;62.08;97060.31;5033168;28;960;-59
2024/01/30 00:34:01;;;;;;;;;;;;;;;1.55;63.13;97066.53;5033240;28;1032;-59
2024/01/30 00:36:35;;;;;;;;;;;;;;;1.47;63.09;97062.50;5033245;28;1122;-57
2024/01/30 00:39:10;;;;;;;;;;;;;;;1.34;63.46;97065.59;5033430;28;932;-59
2024/01/30 00:41:44;;;;;;;;;;;;;;;1.44;63.31;97066.13;5033201;28;937;-58
2024/01/30 00:44:18;;;;;;;;;;;;;;;1.49;63.04;97053.59;5033115;28;1758;-58
2024/01/30 00:46:51;;;;;;;;;;;;;;;1.40;62.92;97058.38;5032995;28;1500;-59
2024/01/30 00:49:25;;;;;;;;;;;;;;;1.44;63.09;97060.84;5032723;28;1757;-59
2024/01/30 00:52:00;;;;;;;;;;;;;;;1.21;63.84;97052.94;5033256;28;1000;-59
2024/01/30 00:54:34;;;;;;;;;;;;;;;1.19;63.67;97060.91;5052629;28;1187;-59
2024/01/30 00:57:09;;;;;;;;;;;;;;;1.27;63.54;97047.44;5053005;28;945;-59
2024/01/30 00:59:43;;;;;;;;;;;;;;;1.13;64.13;97050.59;5053078;28;2009;-59
2024/01/30 01:02:17;;;;;;;;;;;;;;;1.34;63.25;97060.31;5052975;28;921;-58
2024/01/30 01:04:52;;;;;;;;;;;;;;;1.22;64.20;97059.94;5053120;28;1003;-58
2024/01/30 01:07:26;;;;;;;;;;;;;;;1.30;63.40;97068.41;5052991;28;981;-59
2024/01/30 01:10:00;;;;;;;;;;;;;;;1.20;63.71;97059.16;5053132;28;943;-59
2024/01/30 01:12:35;;;;;;;;;;;;;;;0.99;63.95;97053.75;5053052;28;958;-59
2024/01/30 01:15:09;;;;;;;;;;;;;;;0.91;64.33;97054.03;5053045;28;974;-59
2024/01/30 01:17:44;;;;;;;;;;;;;;;0.87;64.84;97047.13;5052892;28;1073;-58
2024/01/30 01:20:18;;;;;;;;;;;;;;;0.96;64.11;97053.84;5052892;28;1971;-59
2024/01/30 01:22:53;;;;;;;;;;;;;;;0.99;64.59;97051.13;5052675;28;982;-59
2024/01/30 01:25:27;;;;;;;;;;;;;;;1.09;64.16;97043.72;5052817;28;977;-59
2024/01/30 01:28:01;;;;;;;;;;;;;;;0.97;64.35;97045.03;5052858;28;1009;-58
2024/01/30 01:30:35;;;;;;;;;;;;;;;1.09;63.61;97041.09;5052753;28;921;-58
2024/01/30 01:33:10;;;;;;;;;;;;;;;1.02;63.87;97036.97;5052869;28;926;-58
2024/01/30 01:35:41;;;;;;;;;;;;;;;0.91;64.42;97032.94;5052704;28;2070;-59
2024/01/30 01:38:16;;;;;;;;;;;;;;;0.76;65.19;97038.78;5052491;28;934;-58
2024/01/30 01:40:51;;;;;;;;;;;;;;;0.81;63.47;97036.81;5052732;28;1985;-58
2024/01/30 01:43:25;;;;;;;;;;;;;;;0.76;63.17;97036.16;5052607;28;934;-58
2024/01/30 01:45:59;;;;;;;;;;;;;;;0.78;63.65;97024.63;5052574;28;945;-58
2024/01/30 01:48:34;;;;;;;;;;;;;;;0.75;63.30;97045.78;5052346;28;1009;-58
2024/01/30 01:51:08;;;;;;;;;;;;;;;0.80;62.93;97042.13;5052410;28;1016;-58
2024/01/30 01:53:43;;;;;;;;;;;;;;;0.73;63.50;97042.34;5040270;28;1213;-58
2024/01/30 01:56:17;;;;;;;;;;;;;;;0.75;63.15;97039.69;5032753;28;938;-58
2024/01/30 01:58:54;;;;;;;;;;;;;;;0.75;63.07;97039.69;5032458;28;937;-58
2024/01/30 02:01:27;;;;;;;;;;;;;;;0.69;63.19;97037.28;5032835;28;1999;-58
2024/01/30 02:04:01;;;;;;;;;;;;;;;0.64;63.14;97032.16;5036379;28;985;-58
2024/01/30 02:06:36;;;;;;;;;;;;;;;0.64;63.94;97033.94;5036201;28;953;-58
2024/01/30 02:09:10;;;;;;;;;;;;;;;0.46;63.57;97028.41;5036018;28;834;-58
2024/01/30 02:11:44;;;;;;;;;;;;;;;0.46;63.67;97031.03;5035855;28;993;-58
2024/01/30 02:14:18;;;;;;;;;;;;;;;0.56;63.13;97032.44;5035731;28;1192;-58
2024/01/30 02:16:53;;;;;;;;;;;;;;;0.54;62.68;97033.41;5035808;28;1199;-58
2024/01/30 02:19:27;;;;;;;;;;;;;;;0.64;62.31;97020.78;5036012;28;2004;-58
2024/01/30 02:22:02;;;;;;;;;;;;;;;0.64;62.63;97026.03;5035978;28;940;-58
2024/01/30 02:24:36;;;;;;;;;;;;;;;0.70;62.26;97028.44;5036043;28;889;-58
2024/01/30 02:27:10;;;;;;;;;;;;;;;0.64;62.73;97019.00;5035958;28;937;-58
2024/01/30 02:29:44;;;;;;;;;;;;;;;0.61;62.08;97018.22;5035625;28;934;-58
2024/01/30 02:32:19;;;;;;;;;;;;;;;0.61;62.48;97023.50;5035805;28;918;-58
2024/01/30 02:34:53;;;;;;;;;;;;;;;0.58;62.25;97021.84;5035463;28;961;-58
2024/01/30 02:37:27;;;;;;;;;;;;;;;0.60;62.18;97016.53;5035610;28;962;-58
2024/01/30 02:40:02;;;;;;;;;;;;;;;0.46;63.15;97024.94;5035787;28;1989;-58
2024/01/30 02:42:36;;;;;;;;;;;;;;;0.45;63.89;97023.19;5035385;28;1012;-58
2024/01/30 02:45:11;;;;;;;;;;;;;;;0.39;64.53;97016.38;5035252;28;913;-58
2024/01/30 02:47:45;;;;;;;;;;;;;;;0.43;64.36;97017.13;5035552;28;1011;-58
2024/01/30 02:50:19;;;;;;;;;;;;;;;0.39;65.46;97022.47;5035493;28;930;-58
2024/01/30 02:52:52;;;;;;;;;;;;;;;0.47;64.68;97027.47;5040632;28;1308;-58
2024/01/30 02:55:27;;;;;;;;;;;;;;;0.35;65.03;97030.56;5055242;28;1029;-58
2024/01/30 02:58:01;;;;;;;;;;;;;;;0.34;64.12;97029.69;5054973;28;922;-58
2024/01/30 03:00:35;;;;;;;;;;;;;;;0.25;63.97;97037.91;5054894;28;1906;-58
2024/01/30 03:03:10;;;;;;;;;;;;;;;0.26;64.48;97033.50;5054899;28;982;-58
2024/01/30 03:05:44;;;;;;;;;;;;;;;0.38;63.46;97046.25;5053763;28;962;-58
2024/01/30 03:08:18;;;;;;;;;;;;;;;0.36;63.89;97037.50;5054632;28;1037;-58
2024/01/30 03:10:52;;;;;;;;;;;;;;;0.38;63.56;97040.97;5055052;28;941;-58
2024/01/30 03:13:27;;;;;;;;;;;;;;;0.31;63.79;97036.84;5054377;28;1271;-58
2024/01/30 03:16:00;;;;;;;;;;;;;;;0.28;63.81;97040.41;5054870;28;1637;-58
2024/01/30 03:18:34;;;;;;;;;;;;;;;0.31;64.04;97044.72;5054505;28;950;-58
2024/01/30 03:21:08;;;;;;;;;;;;;;;0.35;63.51;97046.34;5054452;28;1980;-58
2024/01/30 03:23:43;;;;;;;;;;;;;;;0.40;63.22;97047.06;5054531;28;957;-58
2024/01/30 03:26:17;;;;;;;;;;;;;;;0.34;63.38;97045.50;5054460;28;947;-58
2024/01/30 03:28:51;;;;;;;;;;;;;;;0.35;63.35;97039.28;5053356;28;997;-58
2024/01/30 03:31:26;;;;;;;;;;;;;;;0.35;63.50;97041.94;5054562;28;922;-58
2024/01/30 03:34:00;;;;;;;;;;;;;;;0.48;62.51;97039.75;5054326;28;973;-58
2024/01/30 03:36:35;;;;;;;;;;;;;;;0.44;62.75;97034.63;5054475;28;954;-58
2024/01/30 03:39:09;;;;;;;;;;;;;;;0.45;62.87;97029.31;5043772;28;1084;-58
2024/01/30 03:41:44;;;;;;;;;;;;;;;0.38;62.76;97033.09;5034412;28;1993;-58
2024/01/30 03:44:18;;;;;;;;;;;;;;;0.17;63.85;97037.28;5034139;28;1065;-58
2024/01/30 03:46:52;;;;;;;;;;;;;;;0.23;63.48;97038.84;5034333;28;915;-58
2024/01/30 03:49:27;;;;;;;;;;;;;;;0.11;63.83;97040.97;5034121;28;962;-58
2024/01/30 03:51:58;;;;;;;;;;;;;;;0.07;63.97;97042.00;5034200;28;1295;-58
2024/01/30 03:54:33;;;;;;;;;;;;;;;0.08;64.21;97045.50;5053320;28;1206;-58
2024/01/30 03:57:07;;;;;;;;;;;;;;;0.13;63.75;97044.44;5054130;28;989;-58
2024/01/30 03:59:42;;;;;;;;;;;;;;;0.19;63.60;97051.28;5053828;28;1987;-58
2024/01/30 04:02:17;;;;;;;;;;;;;;;0.19;63.72;97041.59;5053990;28;993;-58
2024/01/30 04:04:52;;;;;;;;;;;;;;;0.22;62.95;97047.66;5054028;28;990;-58
2024/01/30 04:07:26;;;;;;;;;;;;;;;0.17;62.84;97047.81;5053693;28;1001;-58
2024/01/30 04:10:00;;;;;;;;;;;;;;;0.07;63.48;97046.41;5053808;28;953;-58
2024/01/30 04:12:35;;;;;;;;;;;;;;;-0.07;63.95;97038.97;5053909;28;929;-58
2024/01/30 04:15:09;;;;;;;;;;;;;;;0.01;64.04;97042.19;5053627;28;1547;-58
2024/01/30 04:17:43;;;;;;;;;;;;;;;0.18;63.16;97045.13;5053854;28;950;-59
2024/01/30 04:20:18;;;;;;;;;;;;;;;0.11;63.36;97042.75;5053703;28;1969;-58
2024/01/30 04:22:52;;;;;;;;;;;;;;;0.17;63.20;97047.81;5053474;28;988;-58
2024/01/30 04:25:26;;;;;;;;;;;;;;;0.13;62.66;97051.44;5052786;28;1012;-59
2024/01/30 04:28:00;;;;;;;;;;;;;;;0.14;62.91;97058.44;5053663;28;971;-58
2024/01/30 04:30:33;;;;;;;;;;;;;;;0.01;63.52;97050.09;5053031;28;1584;-58
2024/01/30 04:33:07;;;;;;;;;;;;;;;0.20;63.57;97055.59;5053550;28;1396;-58
2024/01/30 04:35:41;;;;;;;;;;;;;;;0.21;63.35;97059.09;5053604;28;949;-59
2024/01/30 04:38:14;;;;;;;;;;;;;;;0.19;62.79;97064.44;5053086;28;897;-58
2024/01/30 04:40:48;;;;;;;;;;;;;;;0.14;63.34;97055.81;5052360;28;1910;-58
2024/01/30 04:43:23;;;;;;;;;;;;;;;0.09;64.06;97052.47;5053385;28;929;-59
2024/01/30 04:45:56;;;;;;;;;;;;;;;0.12;63.26;97053.22;5053232;28;933;-58
2024/01/30 04:48:30;;;;;;;;;;;;;;;0.20;62.87;97060.88;5052922;28;1063;-59
2024/01/30 04:51:04;;;;;;;;;;;;;;;0.18;62.57;97053.03;5052146;28;922;-58
2024/01/30 04:53:39;;;;;;;;;;;;;;;0.28;62.33;97064.09;5041338;28;1149;-57
2024/01/30 04:56:12;;;;;;;;;;;;;;;0.15;63.53;97055.78;5033237;28;1392;-57
2024/01/30 04:58:44;;;;;;;;;;;;;;;0.21;62.59;97064.34;5033117;28;945;-58
2024/01/30 05:01:16;;;;;;;;;;;;;;;0.31;62.30;97071.03;5031743;28;1918;-58
2024/01/30 05:03:50;;;;;;;;;;;;;;;0.36;62.08;97077.00;5033302;28;1374;-60
2024/01/30 05:06:25;;;;;;;;;;;;;;;0.27;62.43;97069.44;5032818;28;1437;-59
2024/01/30 05:09:00;;;;;;;;;;;;;;;0.15;62.88;97081.19;5033263;28;933;-56
2024/01/30 05:11:38;;;;;;;;;;;;;;;0.13;62.53;97081.28;5032849;28;949;-60
2024/01/30 05:14:11;;;;;;;;;;;;;;;0.27;61.92;97085.22;5032723;28;1469;-60
2024/01/30 05:16:46;;;;;;;;;;;;;;;0.30;61.80;97082.47;5033218;28;954;-60
2024/01/30 05:19:20;;;;;;;;;;;;;;;0.32;61.89;97083.28;5040093;28;4026;-62
2024/01/30 05:21:52;;;;;;;;;;;;;;;0.30;61.98;97087.72;5052391;28;1906;-62
2024/01/30 05:24:24;;;;;;;;;;;;;;;0.15;61.62;97084.72;5052693;28;1643;-60
2024/01/30 05:26:56;;;;;;;;;;;;;;;0.14;61.73;97084.75;5051806;28;1409;-60
2024/01/30 05:29:28;;;;;;;;;;;;;;;0.10;61.92;97078.72;5052823;28;1692;-60
2024/01/30 05:32:03;;;;;;;;;;;;;;;0.10;61.20;97084.00;5052908;28;939;-58
2024/01/30 05:34:35;;;;;;;;;;;;;;;0.04;61.98;97086.81;5052911;28;1338;-58
2024/01/30 05:37:08;;;;;;;;;;;;;;;0.04;62.13;97091.22;5056334;28;1477;-57
2024/01/30 05:39:42;;;;;;;;;;;;;;;0.08;61.36;97091.06;5056565;28;1910;-58
2024/01/30 05:42:16;;;;;;;;;;;;;;;0.13;61.43;97089.16;5056736;28;1516;-57
2024/01/30 05:44:48;;;;;;;;;;;;;;;0.14;61.24;97084.75;5056699;28;1503;-57
2024/01/30 05:47:20;;;;;;;;;;;;;;;0.07;61.96;97096.38;5056715;28;1406;-57
2024/01/30 05:49:55;;;;;;;;;;;;;;;0.06;61.82;97090.25;5056421;28;1418;-57
2024/01/30 05:52:27;;;;;;;;;;;;;;;0.08;61.98;97091.06;5056411;28;1469;-57
2024/01/30 05:54:59;;;;;;;;;;;;;;;-0.02;62.28;97082.63;5056523;28;1455;-58
2024/01/30 05:57:32;;;;;;;;;;;;;;;-0.05;61.99;97089.75;5056489;28;1481;-54
2024/01/30 06:00:05;;;;;;;;;;;;;;;0.06;61.70;97097.28;5056451;28;1967;-56
2024/01/30 06:02:37;;;;;;;;;;;;;;;0.04;62.24;97091.22;5056021;28;1638;-56
2024/01/30 06:05:09;;;;;;;;;;;;;;;-0.04;62.42;97091.44;5055993;28;1896;-57
2024/01/30 06:07:42;;;;;;;;;;;;;;;0.18;61.15;97089.84;5056040;28;1555;-58
2024/01/30 06:10:14;;;;;;;;;;;;;;;0.10;61.73;97091.88;5055694;28;1519;-57
2024/01/30 06:12:49;;;;;;;;;;;;;;;0.12;61.01;97089.22;5055587;28;1117;-58
2024/01/30 06:15:23;;;;;;;;;;;;;;;0.18;61.36;97096.91;5055867;28;980;-57
2024/01/30 06:17:57;;;;;;;;;;;;;;;0.11;60.96;97088.31;5055961;28;1611;-57
2024/01/30 06:20:31;;;;;;;;;;;;;;;0.18;60.76;97095.13;5055256;28;1918;-58
2024/01/30 06:23:03;;;;;;;;;;;;;;;0.81;59.60;97099.16;5055833;28;878;-57
2024/01/30 06:25:35;;;;;;;;;;;;;;;3.17;52.33;97118.03;5055763;28;977;-57
2024/01/30 06:28:07;;;;;;;;;;;;;;;5.18;46.85;97143.75;5055705;28;1672;-57
2024/01/30 06:30:39;;;;;;;;;;;;;;;6.24;44.67;97154.03;5055828;28;1310;-57
2024/01/30 06:33:14;;;;;;;;;;;;;;;7.84;40.57;97165.13;5055559;28;1811;-57
2024/01/30 06:35:47;;;;;;;;;;;;;;;8.51;39.14;97171.53;5055612;28;1559;-57
2024/01/30 06:38:19;;;;;;;;;;;;;;;9.33;38.40;97188.38;5055366;28;1499;-58
2024/01/30 06:40:51;;;;;;;;;;;;;;;9.59;35.85;97199.09;5055176;28;1914;-57
2024/01/30 06:43:23;;;;;;;;;;;;;;;8.93;36.96;97193.69;5055409;28;1429;-58
2024/01/30 06:45:55;;;;;;;;;;;;;;;9.58;35.80;97200.06;5055459;28;1560;-58
2024/01/30 06:48:27;;;;;;;;;;;;;;;10.26;35.19;97196.22;5054700;28;1397;-57
2024/01/30 06:50:59;;;;;;;;;;;;;;;10.96;33.53;97204.59;5055334;28;1618;-57
2024/01/30 06:53:31;;;;;;;;;;;;;;;11.98;32.64;97216.59;5055170;28;1440;-58
2024/01/30 06:56:04;;;;;;;;;;;;;;;12.50;31.97;97224.06;5055108;28;1614;-57
2024/01/30 06:58:36;;;;;;;;;;;;;;;12.89;30.59;97216.44;5055266;28;1115;-58
2024/01/30 07:01:08;;;;;;;;;;;;;;;13.21;31.06;97220.16;5053747;28;1910;-58
2024/01/30 07:03:42;;;;;;;;;;;;;;;13.66;29.57;97222.69;5054934;28;1073;-57
2024/01/30 07:06:15;;;;;;;;;;;;;;;14.13;28.77;97223.13;5054977;28;1578;-57
2024/01/30 07:08:47;;;;;;;;;;;;;;;13.69;28.46;97233.19;5053965;28;2255;-57
2024/01/30 07:11:23;;;;;;;;;;;;;;;14.18;28.58;97234.34;5054780;28;1472;-58
2024/01/30 07:13:55;;;;;;;;;;;;;;;14.45;27.90;97238.31;5054614;28;1456;-57
2024/01/30 07:16:27;;;;;;;;;;;;;;;14.98;27.42;97240.81;5054822;28;1687;-58
2024/01/30 07:18:59;;;;;;;;;;;;;;;15.73;26.53;97241.25;5054762;28;1470;-58
2024/01/30 07:21:31;;;;;;;;;;;;;;;15.92;25.67;97242.25;5054407;28;2001;-58
2024/01/30 07:24:03;;;;;;;;;;;;;;;16.10;25.53;97237.78;5054836;28;1515;-59
2024/01/30 07:26:36;;;;;;;;;;;;;;;16.58;25.24;97242.22;5054648;28;1441;-58
2024/01/30 07:29:07;;;;;;;;;;;;;;;16.26;25.62;97239.03;5054551;28;1405;-58
2024/01/30 07:31:40;;;;;;;;;;;;;;;17.34;24.32;97245.72;5054542;28;1550;-59
2024/01/30 07:34:12;;;;;;;;;;;;;;;17.08;24.77;97248.31;5054252;28;1532;-58
2024/01/30 07:36:41;;;;;;;;;;;;;;;16.96;24.86;97242.25;5053111;28;1538;-57
2024/01/30 07:39:13;;;;;;;;;;;;;;;16.53;24.15;97257.16;5054528;28;913;-58
2024/01/30 07:41:45;;;;;;;;;;;;;;;16.35;25.01;97241.72;5054155;28;1991;-57
2024/01/30 07:44:17;;;;;;;;;;;;;;;16.74;25.01;97243.44;5054418;28;997;-57
2024/01/30 07:46:49;;;;;;;;;;;;;;;16.49;24.91;97242.28;5054089;28;1649;-57
2024/01/30 07:49:21;;;;;;;;;;;;;;;15.86;24.84;97246.38;5054277;28;1475;-57
2024/01/30 07:51:53;;;;;;;;;;;;;;;15.66;25.40;97239.22;5054291;28;1630;-56
2024/01/30 07:54:25;;;;;;;;;;;;;;;15.15;25.97;97233.91;5035027;28;2284;-57
2024/01/30 07:56:57;;;;;;;;;;;;;;;14.71;26.45;97237.91;5034261;28;1615;-57
2024/01/30 07:59:29;;;;;;;;;;;;;;;13.76;27.40;97226.31;5032175;28;1428;-57
2024/01/30 08:02:02;;;;;;;;;;;;;;;11.58;30.08;97219.63;5033880;28;1961;-57
2024/01/30 08:04:36;;;;;;;;;;;;;;;9.74;32.92;97215.88;5034004;28;1000;-57
2024/01/30 08:07:08;;;;;;;;;;;;;;;8.43;34.93;97189.84;5034053;28;1597;-57
2024/01/30 08:09:41;;;;;;;;;;;;;;;7.69;36.14;97194.38;5042545;28;1508;-57
2024/01/30 08:12:15;;;;;;;;;;;;;;;6.87;37.81;97178.84;5053463;28;952;-57
2024/01/30 08:14:49;;;;;;;;;;;;;;;6.72;38.01;97189.44;5053257;28;1093;-57
2024/01/30 08:17:24;;;;;;;;;;;;;;;6.48;37.87;97172.22;5052433;28;1004;-57
2024/01/30 08:19:58;;;;;;;;;;;;;;;6.10;38.91;97169.91;5053674;28;1917;-58
2024/01/30 08:22:32;;;;;;;;;;;;;;;5.94;40.19;97168.03;5053408;28;1756;-58
2024/01/30 08:25:05;;;;;;;;;;;;;;;5.58;40.82;97152.31;5053522;28;2318;-58
2024/01/30 08:27:40;;;;;;;;;;;;;;;5.80;40.17;97149.34;5052636;28;924;-58
2024/01/30 08:30:14;;;;;;;;;;;;;;;5.80;39.74;97144.88;5053163;28;1020;-57
2024/01/30 08:32:48;;;;;;;;;;;;;;;5.79;39.98;97147.63;5053571;28;1021;-57
2024/01/30 08:35:23;;;;;;;;;;;;;;;5.83;40.22;97143.88;5053122;28;1009;-58
2024/01/30 08:37:57;;;;;;;;;;;;;;;5.92;39.97;97140.72;5052128;28;984;-58
2024/01/30 08:40:31;;;;;;;;;;;;;;;5.94;40.18;97138.84;5053299;28;1979;-58
2024/01/30 08:43:06;;;;;;;;;;;;;;;6.37;39.51;97140.94;5053458;28;1003;-57
2024/01/30 08:45:40;;;;;;;;;;;;;;;6.62;39.75;97151.00;5053182;28;997;-58
2024/01/30 08:48:15;;;;;;;;;;;;;;;6.38;39.89;97146.16;5053195;28;926;-57
2024/01/30 08:50:47;;;;;;;;;;;;;;;6.19;40.39;97150.81;5053112;28;996;-57
2024/01/30 08:53:21;;;;;;;;;;;;;;;6.49;39.24;97152.66;5043943;28;1200;-57
2024/01/30 08:55:58;;;;;;;;;;;;;;;6.63;38.84;97153.59;5033382;28;977;-57
2024/01/30 08:58:33;;;;;;;;;;;;;;;6.35;40.22;97141.00;5033187;28;968;-58
2024/01/30 09:01:07;;;;;;;;;;;;;;;6.54;39.94;97150.59;5032999;28;1980;-58
2024/01/30 09:03:43;;;;;;;;;;;;;;;6.84;39.11;97151.50;5033043;28;921;-57
2024/01/30 09:06:17;;;;;;;;;;;;;;;7.06;38.10;97152.03;5033294;28;989;-57
2024/01/30 09:08:52;;;;;;;;;;;;;;;7.07;38.94;97148.44;5033222;28;918;-57
2024/01/30 09:11:26;;;;;;;;;;;;;;;7.11;37.93;97134.84;5035472;28;929;-57
2024/01/30 09:14:00;;;;;;;;;;;;;;;7.37;38.40;97135.13;5036927;28;1114;-57
2024/01/30 09:16:35;;;;;;;;;;;;;;;7.36;39.14;97130.72;5035861;28;957;-58
2024/01/30 09:19:09;;;;;;;;;;;;;;;7.59;37.17;97135.53;5036972;28;925;-58
2024/01/30 09:21:43;;;;;;;;;;;;;;;7.20;38.95;97134.31;5037182;28;1981;-57
2024/01/30 09:24:18;;;;;;;;;;;;;;;7.26;37.68;97124.25;5036777;28;1743;-58
2024/01/30 09:26:52;;;;;;;;;;;;;;;7.38;37.77;97126.16;5037064;28;974;-56
2024/01/30 09:29:26;;;;;;;;;;;;;;;7.88;36.81;97121.34;5036922;28;1029;-57
2024/01/30 09:32:00;;;;;;;;;;;;;;;7.82;36.67;97122.59;5036708;28;934;-57
2024/01/30 09:34:35;;;;;;;;;;;;;;;7.71;37.04;97128.56;5036637;28;933;-57
2024/01/30 09:37:09;;;;;;;;;;;;;;;7.69;37.49;97117.16;5036600;28;1863;-57
2024/01/30 09:39:43;;;;;;;;;;;;;;;7.79;37.86;97114.78;5036773;28;1987;-57
2024/01/30 09:42:25;;;;;;;;;;;;;;;8.17;37.59;97115.00;5036594;28;933;-57
2024/01/30 09:44:59;;;;;;;;;;;;;;;8.15;36.87;97116.06;5036524;28;949;-57
2024/01/30 09:47:39;;;;;;;;;;;;;;;7.63;37.93;97104.25;5036266;28;938;-57
2024/01/30 09:50:15;;;;;;;;;;;;;;;8.01;37.90;97093.84;5036582;28;993;-56
2024/01/30 09:52:49;;;;;;;;;;;;;;;8.32;36.84;97101.66;5041285;28;1186;-57
2024/01/30 09:55:24;;;;;;;;;;;;;;;8.23;37.05;97104.91;5056388;28;1008;-57
2024/01/30 09:57:59;;;;;;;;;;;;;;;8.18;37.35;97097.25;5056061;28;933;-57
2024/01/30 10:00:27;;;;;;;;;;;;;;;8.33;38.10;97093.56;5055907;28;1909;-57
2024/01/30 10:02:53;;;;;;;;;;;;;;;8.55;36.81;97094.84;5055884;28;1088;-57
2024/01/30 10:05:20;;;;;;;;;;;;;;;8.68;36.99;97085.09;5056125;28;1016;-57
2024/01/30 10:07:56;;;;;;;;;;;;;;;8.42;36.68;97091.28;5056165;28;1008;-57
2024/01/30 10:10:23;;;;;;;;;;;;;;;8.26;37.22;97094.91;5055738;28;1031;-56
2024/01/30 10:12:49;;;;;;;;;;;;;;;7.95;37.55;97102.22;5055928;28;1078;-57
2024/01/30 10:15:17;;;;;;;;;;;;;;;8.16;37.56;97094.66;5055972;28;934;-56
2024/01/30 10:17:43;;;;;;;;;;;;;;;8.01;37.29;97087.66;5055960;28;982;-57
2024/01/30 10:20:10;;;;;;;;;;;;;;;7.99;37.79;97078.91;5055957;28;2020;-57
2024/01/30 10:22:36;;;;;;;;;;;;;;;8.33;37.33;97080.25;5054757;28;969;-57
2024/01/30 10:25:02;;;;;;;;;;;;;;;8.32;37.33;97081.19;5055510;28;1096;-56
2024/01/30 10:27:29;;;;;;;;;;;;;;;8.67;36.85;97083.41;5055456;28;1076;-57
2024/01/30 10:29:55;;;;;;;;;;;;;;;8.72;36.24;97077.75;5055790;28;1034;-56
2024/01/30 10:32:21;;;;;;;;;;;;;;;8.58;37.15;97078.66;5055674;28;1045;-56
2024/01/30 10:34:47;;;;;;;;;;;;;;;8.54;37.00;97074.50;5055385;28;1085;-57
2024/01/30 10:37:15;;;;;;;;;;;;;;;8.53;36.85;97065.63;5054023;28;1187;-56
2024/01/30 10:39:42;;;;;;;;;;;;;;;8.45;37.07;97059.94;5055556;28;1041;-56
2024/01/30 10:42:17;;;;;;;;;;;;;;;8.78;36.34;97058.66;5055519;28;1959;-56
2024/01/30 10:44:46;;;;;;;;;;;;;;;8.55;37.36;97050.38;5055521;28;1033;-57
2024/01/30 10:47:15;;;;;;;;;;;;;;;9.02;36.80;97052.63;5054009;28;1143;-56
2024/01/30 10:49:42;;;;;;;;;;;;;;;9.11;36.08;97050.19;5055259;28;957;-57
2024/01/30 10:52:09;;;;;;;;;;;;;;;8.20;36.89;97050.03;5055035;28;1084;-57
2024/01/30 10:54:36;;;;;;;;;;;;;;;8.34;37.57;97044.63;5036180;28;1185;-56
2024/01/30 10:57:04;;;;;;;;;;;;;;;8.46;37.24;97039.47;5035434;28;1152;-56
2024/01/30 10:59:31;;;;;;;;;;;;;;;8.51;37.43;97042.69;5035135;28;1033;-57
2024/01/30 11:01:58;;;;;;;;;;;;;;;8.27;37.54;97040.69;5034950;28;1910;-57
2024/01/30 11:04:25;;;;;;;;;;;;;;;8.45;36.93;97032.44;5034888;28;1107;-56
2024/01/30 11:06:51;;;;;;;;;;;;;;;8.49;37.81;97028.63;5034944;28;974;-56
2024/01/30 11:09:17;;;;;;;;;;;;;;;8.36;37.42;97021.38;5034750;28;1049;-57
2024/01/30 11:11:49;;;;;;;;;;;;;;;8.72;37.01;97019.06;5034854;28;1113;-57
2024/01/30 11:14:22;;;;;;;;;;;;;;;8.54;37.07;97026.50;5034565;28;1201;-57
2024/01/30 11:16:49;;;;;;;;;;;;;;;8.63;37.67;97011.69;5034872;28;1008;-57
2024/01/30 11:19:14;;;;;;;;;;;;;;;8.26;38.12;97011.47;5034883;28;981;-57
2024/01/30 11:21:43;;;;;;;;;;;;;;;7.62;39.09;96996.88;5034803;28;1918;-57
2024/01/30 11:24:09;;;;;;;;;;;;;;;7.79;38.61;97001.13;5034769;28;962;-57
2024/01/30 11:26:35;;;;;;;;;;;;;;;7.89;38.96;97000.53;5034709;28;1061;-56
2024/01/30 11:29:07;;;;;;;;;;;;;;;7.89;38.74;97003.19;5033578;28;953;-56
2024/01/30 11:31:33;;;;;;;;;;;;;;;7.82;39.19;96990.28;5034375;28;1083;-57
2024/01/30 11:33:59;;;;;;;;;;;;;;;7.49;39.21;96987.94;5034233;28;988;-57
2024/01/30 11:36:25;;;;;;;;;;;;;;;7.90;39.11;96987.09;5034456;28;1024;-57
2024/01/30 11:38:54;;;;;;;;;;;;;;;7.58;39.24;96967.88;5034525;28;965;-56
2024/01/30 11:41:20;;;;;;;;;;;;;;;7.74;38.71;96975.72;5034069;28;1902;-57
2024/01/30 11:43:52;;;;;;;;;;;;;;;7.77;39.24;96968.41;5034504;28;1004;-57
2024/01/30 11:46:19;;;;;;;;;;;;;;;7.71;39.23;96967.97;5034108;28;996;-56
2024/01/30 11:48:45;;;;;;;;;;;;;;;7.87;39.38;96971.31;5034058;28;965;-57
2024/01/30 11:51:12;;;;;;;;;;;;;;;8.20;39.16;96975.41;5033015;28;1066;-57
2024/01/30 11:53:38;;;;;;;;;;;;;;;7.91;38.88;96977.31;5045526;28;1161;-57
2024/01/30 11:56:06;;;;;;;;;;;;;;;8.01;39.25;96968.63;5054190;28;973;-57
2024/01/30 11:58:32;;;;;;;;;;;;;;;7.69;39.61;96969.88;5054092;28;962;-57
2024/01/30 12:00:58;;;;;;;;;;;;;;;7.62;40.25;96964.06;5054021;28;1991;-57
2024/01/30 12:03:24;;;;;;;;;;;;;;;7.41;40.61;96956.50;5053569;28;1091;-56
2024/01/30 12:06:00;;;;;;;;;;;;;;;7.16;40.60;96951.88;5053989;28;1013;-57
2024/01/30 12:08:27;;;;;;;;;;;;;;;7.17;40.85;96963.34;5053994;28;1045;-57
2024/01/30 12:11:01;;;;;;;;;;;;;;;6.82;40.85;96964.59;5053605;28;1076;-57
2024/01/30 12:13:28;;;;;;;;;;;;;;;6.76;42.20;96954.34;5053396;28;1267;-58
2024/01/30 12:15:54;;;;;;;;;;;;;;;7.05;41.35;96943.72;5053496;28;1072;-57
2024/01/30 12:18:20;;;;;;;;;;;;;;;6.94;42.07;96941.69;5053671;28;1012;-57
2024/01/30 12:20:56;;;;;;;;;;;;;;;6.99;41.88;96944.09;5054009;28;1914;-57
2024/01/30 12:23:25;;;;;;;;;;;;;;;6.90;41.97;96936.69;5053577;28;962;-57
2024/01/30 12:25:51;;;;;;;;;;;;;;;6.80;42.32;96931.94;5053289;28;1133;-57
2024/01/30 12:28:18;;;;;;;;;;;;;;;6.74;42.39;96924.34;5053149;28;1036;-56
2024/01/30 12:30:44;;;;;;;;;;;;;;;6.78;42.42;96925.84;5053583;28;989;-56
2024/01/30 12:33:15;;;;;;;;;;;;;;;6.93;42.12;96925.88;5053543;28;1042;-56
2024/01/30 12:35:45;;;;;;;;;;;;;;;6.89;42.43;96927.00;5053585;28;1029;-56
2024/01/30 12:38:11;;;;;;;;;;;;;;;6.75;42.60;96918.06;5053421;28;981;-56
2024/01/30 12:40:37;;;;;;;;;;;;;;;6.81;42.37;96924.78;5053218;28;1993;-57
2024/01/30 12:43:03;;;;;;;;;;;;;;;6.73;42.29;96921.75;5053069;28;1033;-57
2024/01/30 12:45:29;;;;;;;;;;;;;;;6.79;41.46;96922.25;5052818;28;1190;-58
2024/01/30 12:47:56;;;;;;;;;;;;;;;6.42;41.80;96919.16;5053090;28;1013;-58
2024/01/30 12:50:22;;;;;;;;;;;;;;;6.49;41.78;96929.41;5039110;28;1972;-58
2024/01/30 12:52:48;;;;;;;;;;;;;;;6.42;42.53;96918.31;5037775;28;1202;-57
2024/01/30 12:55:14;;;;;;;;;;;;;;;6.41;41.95;96925.44;5052001;28;981;-57
2024/01/30 12:57:40;;;;;;;;;;;;;;;6.16;42.16;96911.91;5051762;28;1103;-57
2024/01/30 13:00:08;;;;;;;;;;;;;;;6.05;43.28;96921.38;5053197;28;1909;-58
2024/01/30 13:02:36;;;;;;;;;;;;;;;6.16;42.67;96907.44;5052886;28;1024;-58
2024/01/30 13:05:03;;;;;;;;;;;;;;;6.11;43.09;96909.53;5053274;28;1000;-57
2024/01/30 13:07:29;;;;;;;;;;;;;;;6.13;42.71;96915.59;5053103;28;1099;-58
2024/01/30 13:09:56;;;;;;;;;;;;;;;6.17;42.75;96913.63;5052996;28;1027;-57
2024/01/30 13:12:22;;;;;;;;;;;;;;;6.30;42.94;96916.38;5053022;28;966;-56
2024/01/30 13:14:48;;;;;;;;;;;;;;;6.28;42.52;96903.22;5052642;28;1259;-58
2024/01/30 13:17:14;;;;;;;;;;;;;;;6.32;44.05;96915.38;5052993;28;1041;-57
2024/01/30 13:19:40;;;;;;;;;;;;;;;6.24;42.93;96910.50;5052809;28;1083;-57
2024/01/30 13:22:06;;;;;;;;;;;;;;;6.23;42.56;96918.56;5053169;28;1910;-57
2024/01/30 13:24:32;;;;;;;;;;;;;;;5.96;43.22;96905.97;5052741;28;1041;-57
2024/01/30 13:26:58;;;;;;;;;;;;;;;6.03;42.66;96902.00;5052674;28;1037;-57
2024/01/30 13:29:24;;;;;;;;;;;;;;;6.00;42.19;96902.19;5052662;28;1056;-57
2024/01/30 13:31:50;;;;;;;;;;;;;;;5.96;42.85;96898.00;5052921;28;1125;-57
2024/01/30 13:34:16;;;;;;;;;;;;;;;5.97;42.86;96905.00;5052553;28;1111;-57